Mannboro, Virginia
Current Conditions -  °F | °C
As of 2:55 PM on Saturday 20 Dec 2014 (Local Time) from KBKT Reporting Station
Overcast Overcast  
Wind Chill: 38°   Ceiling: 6000
Heat Index: 38°   Visibility: 10mi
Dew Point: 24°   Wind: 3mph
Humidity: 57%   Direction: 90°E
Pressure: 30.24"   Gusts: NA
Location:  37.25°N, 77.82°W
Report Text: KBKT 201955Z AUTO 09003KT 10SM BKN060 OVC090 03/M04 A3024 RMK AO1 T00341045
Loading
Personal Weather Stations






























Interactive Weather Map New forecast layout! Learn more

10-Day Weather Forecast

Advertisements
Track Severe Weather on mobile